sensor_id;sensor_type;location;lat;lon;timestamp;pressure;altitude;pressure_sealevel;temperature;humidity
49835;BME280;35729;52.090;13.162;2023-01-25T00:01:13;103284.00;;;0.90;92.38
49835;BME280;35729;52.090;13.162;2023-01-25T00:03:41;103270.97;;;0.88;92.69
49835;BME280;35729;52.090;13.162;2023-01-25T00:06:10;103277.91;;;0.89;92.41
49835;BME280;35729;52.090;13.162;2023-01-25T00:08:41;103272.66;;;0.88;92.64
49835;BME280;35729;52.090;13.162;2023-01-25T00:11:09;103277.91;;;0.89;92.75
49835;BME280;35729;52.090;13.162;2023-01-25T00:13:38;103272.66;;;0.88;92.67
49835;BME280;35729;52.090;13.162;2023-01-25T00:16:06;103261.53;;;0.89;92.67
49835;BME280;35729;52.090;13.162;2023-01-25T00:18:35;103269.38;;;0.90;92.59
49835;BME280;35729;52.090;13.162;2023-01-25T00:21:11;103261.53;;;0.89;92.45
49835;BME280;35729;52.090;13.162;2023-01-25T00:23:42;103265.78;;;0.88;92.76
49835;BME280;35729;52.090;13.162;2023-01-25T00:26:11;103247.69;;;0.88;92.78
49835;BME280;35729;52.090;13.162;2023-01-25T00:28:39;103249.50;;;0.89;92.96
49835;BME280;35729;52.090;13.162;2023-01-25T00:31:10;103235.69;;;0.89;92.59
49835;BME280;35729;52.090;13.162;2023-01-25T00:33:49;103237.47;;;0.90;92.76
49835;BME280;35729;52.090;13.162;2023-01-25T00:36:39;103237.34;;;0.88;92.58
49835;BME280;35729;52.090;13.162;2023-01-25T00:39:12;103242.53;;;0.88;92.72
49835;BME280;35729;52.090;13.162;2023-01-25T00:41:42;103242.44;;;0.87;92.73
49835;BME280;35729;52.090;13.162;2023-01-25T00:44:10;103230.31;;;0.86;92.99
49835;BME280;35729;52.090;13.162;2023-01-25T00:46:39;103227.75;;;0.86;93.11
49835;BME280;35729;52.090;13.162;2023-01-25T00:49:18;103226.94;;;0.87;93.18
49835;BME280;35729;52.090;13.162;2023-01-25T00:51:48;103212.31;;;0.87;93.08
49835;BME280;35729;52.090;13.162;2023-01-25T00:54:19;103202.78;;;0.86;93.01
49835;BME280;35729;52.090;13.162;2023-01-25T00:56:48;103201.16;;;0.88;92.99
49835;BME280;35729;52.090;13.162;2023-01-25T00:59:16;103200.28;;;0.88;93.14
49835;BME280;35729;52.090;13.162;2023-01-25T01:01:45;103184.78;;;0.88;93.23
49835;BME280;35729;52.090;13.162;2023-01-25T01:04:14;103184.00;;;0.89;93.21
49835;BME280;35729;52.090;13.162;2023-01-25T01:06:43;103176.31;;;0.90;93.11
49835;BME280;35729;52.090;13.162;2023-01-25T01:09:14;103179.69;;;0.89;93.12
49835;BME280;35729;52.090;13.162;2023-01-25T01:11:45;103178.03;;;0.90;93.18
49835;BME280;35729;52.090;13.162;2023-01-25T01:14:14;103183.19;;;0.90;93.37
49835;BME280;35729;52.090;13.162;2023-01-25T01:16:43;103185.78;;;0.90;93.30
49835;BME280;35729;52.090;13.162;2023-01-25T01:19:12;103178.81;;;0.89;93.27
49835;BME280;35729;52.090;13.162;2023-01-25T01:21:41;103171.88;;;0.88;93.13
49835;BME280;35729;52.090;13.162;2023-01-25T01:24:09;103168.47;;;0.89;93.22
49835;BME280;35729;52.090;13.162;2023-01-25T01:26:38;103164.09;;;0.88;93.20
49835;BME280;35729;52.090;13.162;2023-01-25T01:29:09;103169.28;;;0.88;93.48
49835;BME280;35729;52.090;13.162;2023-01-25T01:31:37;103160.63;;;0.87;93.48
49835;BME280;35729;52.090;13.162;2023-01-25T01:34:05;103158.03;;;0.87;93.70
49835;BME280;35729;52.090;13.162;2023-01-25T01:36:34;103154.66;;;0.88;93.43
49835;BME280;35729;52.090;13.162;2023-01-25T01:39:02;103152.97;;;0.89;93.46
49835;BME280;35729;52.090;13.162;2023-01-25T01:41:31;103145.22;;;0.89;93.69
49835;BME280;35729;52.090;13.162;2023-01-25T01:43:59;103133.16;;;0.89;93.55
49835;BME280;35729;52.090;13.162;2023-01-25T01:46:32;103142.63;;;0.89;93.69
49835;BME280;35729;52.090;13.162;2023-01-25T01:49:04;103143.50;;;0.89;93.73
49835;BME280;35729;52.090;13.162;2023-01-25T01:51:39;103144.31;;;0.88;93.39
49835;BME280;35729;52.090;13.162;2023-01-25T01:54:12;103140.78;;;0.86;93.53
49835;BME280;35729;52.090;13.162;2023-01-25T01:56:46;103151.09;;;0.86;93.74
49835;BME280;35729;52.090;13.162;2023-01-25T01:59:20;103152.78;;;0.86;93.78
49835;BME280;35729;52.090;13.162;2023-01-25T02:01:53;103144.94;;;0.84;93.82
49835;BME280;35729;52.090;13.162;2023-01-25T02:04:24;103149.25;;;0.84;93.92
49835;BME280;35729;52.090;13.162;2023-01-25T02:06:58;103154.41;;;0.84;93.86
49835;BME280;35729;52.090;13.162;2023-01-25T02:09:30;103143.97;;;0.82;93.84
49835;BME280;35729;52.090;13.162;2023-01-25T02:11:59;103156.16;;;0.85;93.82
49835;BME280;35729;52.090;13.162;2023-01-25T02:14:28;103149.25;;;0.84;93.91
49835;BME280;35729;52.090;13.162;2023-01-25T02:17:00;103150.03;;;0.83;94.24
49835;BME280;35729;52.090;13.162;2023-01-25T02:19:38;103151.00;;;0.85;93.81
49835;BME280;35729;52.090;13.162;2023-01-25T02:22:13;103150.03;;;0.83;94.18
49835;BME280;35729;52.090;13.162;2023-01-25T02:24:56;103151.00;;;0.85;94.22
49835;BME280;35729;52.090;13.162;2023-01-25T02:27:26;103152.69;;;0.84;94.04
49835;BME280;35729;52.090;13.162;2023-01-25T02:29:55;103150.91;;;0.83;94.31
49835;BME280;35729;52.090;13.162;2023-01-25T02:32:25;103151.72;;;0.82;94.16
49835;BME280;35729;52.090;13.162;2023-01-25T02:34:53;103152.53;;;0.81;94.07
49835;BME280;35729;52.090;13.162;2023-01-25T02:37:22;103149.03;;;0.80;94.20
49835;BME280;35729;52.090;13.162;2023-01-25T02:39:50;103144.66;;;0.79;94.19
49835;BME280;35729;52.090;13.162;2023-01-25T02:42:22;103147.25;;;0.79;94.34
49835;BME280;35729;52.090;13.162;2023-01-25T02:44:50;103150.66;;;0.78;94.31
49835;BME280;35729;52.090;13.162;2023-01-25T02:47:19;103146.31;;;0.77;94.32
49835;BME280;35729;52.090;13.162;2023-01-25T02:49:48;103149.75;;;0.78;94.13
49835;BME280;35729;52.090;13.162;2023-01-25T02:52:16;103148.81;;;0.76;94.49
49835;BME280;35729;52.090;13.162;2023-01-25T02:54:45;103144.44;;;0.75;94.30
49835;BME280;35729;52.090;13.162;2023-01-25T02:57:13;103133.03;;;0.71;94.41
49835;BME280;35729;52.090;13.162;2023-01-25T02:59:44;103133.09;;;0.73;94.57
49835;BME280;35729;52.090;13.162;2023-01-25T03:02:13;103127.06;;;0.72;94.68
49835;BME280;35729;52.090;13.162;2023-01-25T03:04:41;103130.53;;;0.73;94.68
49835;BME280;35729;52.090;13.162;2023-01-25T03:07:10;103121.97;;;0.74;94.80
49835;BME280;35729;52.090;13.162;2023-01-25T03:09:38;103118.47;;;0.73;94.93
49835;BME280;35729;52.090;13.162;2023-01-25T03:12:07;103113.31;;;0.73;94.71
49835;BME280;35729;52.090;13.162;2023-01-25T03:14:35;103119.38;;;0.74;94.80
49835;BME280;35729;52.090;13.162;2023-01-25T03:17:06;103112.50;;;0.74;94.67
49835;BME280;35729;52.090;13.162;2023-01-25T03:19:34;103115.09;;;0.74;94.89
49835;BME280;35729;52.090;13.162;2023-01-25T03:22:03;103109.94;;;0.74;94.80
49835;BME280;35729;52.090;13.162;2023-01-25T03:24:31;103107.34;;;0.74;94.91
49835;BME280;35729;52.090;13.162;2023-01-25T03:27:00;103097.00;;;0.74;94.94
49835;BME280;35729;52.090;13.162;2023-01-25T03:29:38;103103.97;;;0.75;94.84
49835;BME280;35729;52.090;13.162;2023-01-25T03:32:10;103107.47;;;0.76;94.89
49835;BME280;35729;52.090;13.162;2023-01-25T03:34:38;103106.63;;;0.77;94.92
49835;BME280;35729;52.090;13.162;2023-01-25T03:37:07;103095.41;;;0.76;94.94
49835;BME280;35729;52.090;13.162;2023-01-25T03:39:35;103104.03;;;0.77;95.07
49835;BME280;35729;52.090;13.162;2023-01-25T03:42:04;103102.38;;;0.77;95.08
49835;BME280;35729;52.090;13.162;2023-01-25T03:44:32;103097.19;;;0.77;95.24
49835;BME280;35729;52.090;13.162;2023-01-25T03:47:01;103098.00;;;0.76;94.91
49835;BME280;35729;52.090;13.162;2023-01-25T03:49:32;103092.81;;;0.76;95.15
49835;BME280;35729;52.090;13.162;2023-01-25T03:52:00;103090.25;;;0.76;95.16
49835;BME280;35729;52.090;13.162;2023-01-25T03:54:29;103091.94;;;0.76;95.00
49835;BME280;35729;52.090;13.162;2023-01-25T03:56:57;103091.94;;;0.76;94.90
49835;BME280;35729;52.090;13.162;2023-01-25T03:59:26;103097.00;;;0.74;95.18
49835;BME280;35729;52.090;13.162;2023-01-25T04:01:54;103087.47;;;0.73;95.11
49835;BME280;35729;52.090;13.162;2023-01-25T04:04:22;103078.84;;;0.73;95.11
49835;BME280;35729;52.090;13.162;2023-01-25T04:06:53;103083.13;;;0.72;95.31
49835;BME280;35729;52.090;13.162;2023-01-25T04:09:22;103081.41;;;0.73;95.28
49835;BME280;35729;52.090;13.162;2023-01-25T04:11:51;103080.53;;;0.72;95.19
49835;BME280;35729;52.090;13.162;2023-01-25T04:14:19;103079.63;;;0.72;95.24
49835;BME280;35729;52.090;13.162;2023-01-25T04:16:48;103080.53;;;0.72;95.50
49835;BME280;35729;52.090;13.162;2023-01-25T04:19:16;103070.09;;;0.71;95.32
49835;BME280;35729;52.090;13.162;2023-01-25T04:21:44;103072.88;;;0.74;95.65
49835;BME280;35729;52.090;13.162;2023-01-25T04:24:15;103067.72;;;0.74;95.65
49835;BME280;35729;52.090;13.162;2023-01-25T04:26:44;103073.75;;;0.74;95.46
49835;BME280;35729;52.090;13.162;2023-01-25T04:29:12;103070.38;;;0.75;95.48
49835;BME280;35729;52.090;13.162;2023-01-25T04:31:41;103053.19;;;0.76;95.65
49835;BME280;35729;52.090;13.162;2023-01-25T04:34:09;103056.72;;;0.78;95.55
49835;BME280;35729;52.090;13.162;2023-01-25T04:36:38;103053.25;;;0.77;95.71
49835;BME280;35729;52.090;13.162;2023-01-25T04:39:06;103051.56;;;0.78;95.55
49835;BME280;35729;52.090;13.162;2023-01-25T04:41:37;103042.13;;;0.78;95.83
49835;BME280;35729;52.090;13.162;2023-01-25T04:44:06;103037.75;;;0.77;95.48
49835;BME280;35729;52.090;13.162;2023-01-25T04:46:34;103035.19;;;0.77;95.64
49835;BME280;35729;52.090;13.162;2023-01-25T04:49:09;103036.84;;;0.77;95.78
49835;BME280;35729;52.090;13.162;2023-01-25T04:51:37;103041.22;;;0.78;95.69
49835;BME280;35729;52.090;13.162;2023-01-25T04:54:06;103039.53;;;0.78;96.00
49835;BME280;35729;52.090;13.162;2023-01-25T04:56:37;103032.66;;;0.79;95.89
49835;BME280;35729;52.090;13.162;2023-01-25T04:59:05;103038.72;;;0.79;96.04
49835;BME280;35729;52.090;13.162;2023-01-25T05:01:34;103031.78;;;0.78;96.01
49835;BME280;35729;52.090;13.162;2023-01-25T05:04:02;103031.88;;;0.80;95.84
49835;BME280;35729;52.090;13.162;2023-01-25T05:06:30;103018.94;;;0.80;96.07
49835;BME280;35729;52.090;13.162;2023-01-25T05:08:59;103015.47;;;0.79;96.21
49835;BME280;35729;52.090;13.162;2023-01-25T05:11:27;103023.22;;;0.79;96.23
49835;BME280;35729;52.090;13.162;2023-01-25T05:13:58;103012.88;;;0.79;96.00
49835;BME280;35729;52.090;13.162;2023-01-25T05:16:27;103012.00;;;0.79;96.10
49835;BME280;35729;52.090;13.162;2023-01-25T05:18:55;103002.53;;;0.79;96.19
49835;BME280;35729;52.090;13.162;2023-01-25T05:21:31;103006.91;;;0.80;96.23
49835;BME280;35729;52.090;13.162;2023-01-25T05:24:12;103004.41;;;0.82;96.19
49835;BME280;35729;52.090;13.162;2023-01-25T05:26:40;102999.22;;;0.82;96.15
49835;BME280;35729;52.090;13.162;2023-01-25T05:29:24;103001.00;;;0.83;96.43
49835;BME280;35729;52.090;13.162;2023-01-25T05:31:52;103001.91;;;0.84;96.19
49835;BME280;35729;52.090;13.162;2023-01-25T05:34:21;102994.16;;;0.84;96.45
49835;BME280;35729;52.090;13.162;2023-01-25T05:36:50;103000.22;;;0.84;96.23
49835;BME280;35729;52.090;13.162;2023-01-25T05:39:19;102995.91;;;0.85;96.41
49835;BME280;35729;52.090;13.162;2023-01-25T05:41:47;102996.84;;;0.85;96.34
49835;BME280;35729;52.090;13.162;2023-01-25T05:44:16;103004.59;;;0.85;96.31
49835;BME280;35729;52.090;13.162;2023-01-25T05:46:47;102996.84;;;0.85;96.21
49835;BME280;35729;52.090;13.162;2023-01-25T05:49:16;102990.75;;;0.85;96.21
49835;BME280;35729;52.090;13.162;2023-01-25T05:51:45;102989.94;;;0.86;95.80
49835;BME280;35729;52.090;13.162;2023-01-25T05:54:15;102988.09;;;0.83;96.02
49835;BME280;35729;52.090;13.162;2023-01-25T05:56:44;102991.59;;;0.84;96.01
49835;BME280;35729;52.090;13.162;2023-01-25T05:59:12;102981.13;;;0.82;96.23
49835;BME280;35729;52.090;13.162;2023-01-25T06:01:42;102983.72;;;0.82;96.39
49835;BME280;35729;52.090;13.162;2023-01-25T06:04:14;103000.22;;;0.84;96.09
49835;BME280;35729;52.090;13.162;2023-01-25T06:06:43;102995.03;;;0.84;96.41
49835;BME280;35729;52.090;13.162;2023-01-25T06:09:12;102990.75;;;0.85;96.25
49835;BME280;35729;52.090;13.162;2023-01-25T06:11:42;102986.56;;;0.87;96.39
49835;BME280;35729;52.090;13.162;2023-01-25T06:14:12;102985.78;;;0.88;96.51
49835;BME280;35729;52.090;13.162;2023-01-25T06:16:40;102979.00;;;0.90;96.48
49835;BME280;35729;52.090;13.162;2023-01-25T06:19:14;102975.44;;;0.88;96.21
49835;BME280;35729;52.090;13.162;2023-01-25T06:21:42;102972.91;;;0.89;95.83
49835;BME280;35729;52.090;13.162;2023-01-25T06:24:11;102968.47;;;0.87;95.94
49835;BME280;35729;52.090;13.162;2023-01-25T06:26:39;102970.06;;;0.85;96.16
49835;BME280;35729;52.090;13.162;2023-01-25T06:29:08;102972.66;;;0.85;96.06
49835;BME280;35729;52.090;13.162;2023-01-25T06:31:36;102976.16;;;0.85;96.18
49835;BME280;35729;52.090;13.162;2023-01-25T06:34:05;102974.38;;;0.84;96.49
49835;BME280;35729;52.090;13.162;2023-01-25T06:36:37;102977.94;;;0.86;96.28
49835;BME280;35729;52.090;13.162;2023-01-25T06:39:05;102974.44;;;0.86;96.38
49835;BME280;35729;52.090;13.162;2023-01-25T06:41:34;102976.22;;;0.87;96.21
49835;BME280;35729;52.090;13.162;2023-01-25T06:44:02;102973.66;;;0.87;96.20
49835;BME280;35729;52.090;13.162;2023-01-25T06:46:31;102975.34;;;0.86;96.16
49835;BME280;35729;52.090;13.162;2023-01-25T06:49:00;102972.66;;;0.85;96.14
49835;BME280;35729;52.090;13.162;2023-01-25T06:51:28;102973.50;;;0.84;96.15
49835;BME280;35729;52.090;13.162;2023-01-25T06:54:01;102968.31;;;0.84;96.20
49835;BME280;35729;52.090;13.162;2023-01-25T06:56:30;102971.78;;;0.84;96.44
49835;BME280;35729;52.090;13.162;2023-01-25T06:58:59;102966.63;;;0.84;96.55
49835;BME280;35729;52.090;13.162;2023-01-25T07:01:28;102958.88;;;0.84;96.40
49835;BME280;35729;52.090;13.162;2023-01-25T07:03:57;102956.34;;;0.86;96.37
49835;BME280;35729;52.090;13.162;2023-01-25T07:06:31;102950.22;;;0.84;96.27
49835;BME280;35729;52.090;13.162;2023-01-25T07:09:08;102950.22;;;0.84;96.52
49835;BME280;35729;52.090;13.162;2023-01-25T07:11:37;102941.56;;;0.83;96.09
49835;BME280;35729;52.090;13.162;2023-01-25T07:14:05;102945.78;;;0.81;95.75
49835;BME280;35729;52.090;13.162;2023-01-25T07:16:34;102939.72;;;0.80;96.26
49835;BME280;35729;52.090;13.162;2023-01-25T07:19:04;102937.13;;;0.80;96.34
49835;BME280;35729;52.090;13.162;2023-01-25T07:21:32;102938.84;;;0.80;96.31
49835;BME280;35729;52.090;13.162;2023-01-25T07:24:05;102935.34;;;0.79;96.41
49835;BME280;35729;52.090;13.162;2023-01-25T07:26:34;102929.31;;;0.79;96.27
49835;BME280;35729;52.090;13.162;2023-01-25T07:29:02;102929.31;;;0.79;96.35
49835;BME280;35729;52.090;13.162;2023-01-25T07:31:31;102937.94;;;0.79;96.23
49835;BME280;35729;52.090;13.162;2023-01-25T07:33:59;102930.09;;;0.78;96.18
49835;BME280;35729;52.090;13.162;2023-01-25T07:36:28;102929.16;;;0.76;96.08
49835;BME280;35729;52.090;13.162;2023-01-25T07:38:57;102929.16;;;0.76;96.48
49835;BME280;35729;52.090;13.162;2023-01-25T07:41:28;102926.66;;;0.77;96.40
49835;BME280;35729;52.090;13.162;2023-01-25T07:43:57;102924.06;;;0.77;96.39
49835;BME280;35729;52.090;13.162;2023-01-25T07:46:26;102923.16;;;0.77;96.32
49835;BME280;35729;52.090;13.162;2023-01-25T07:48:54;102913.72;;;0.77;96.47
49835;BME280;35729;52.090;13.162;2023-01-25T07:51:23;102914.59;;;0.78;96.55
49835;BME280;35729;52.090;13.162;2023-01-25T07:53:56;102910.22;;;0.77;96.40
49835;BME280;35729;52.090;13.162;2023-01-25T07:56:29;102906.78;;;0.76;96.45
49835;BME280;35729;52.090;13.162;2023-01-25T07:58:59;102903.19;;;0.74;95.72
49835;BME280;35729;52.090;13.162;2023-01-25T08:01:29;102909.16;;;0.73;95.97
49835;BME280;35729;52.090;13.162;2023-01-25T08:04:01;102899.56;;;0.71;96.28
49835;BME280;35729;52.090;13.162;2023-01-25T08:06:31;102904.72;;;0.71;96.33
49835;BME280;35729;52.090;13.162;2023-01-25T08:09:05;102906.44;;;0.70;96.38
49835;BME280;35729;52.090;13.162;2023-01-25T08:11:36;102899.50;;;0.69;96.38
49835;BME280;35729;52.090;13.162;2023-01-25T08:14:05;102899.56;;;0.71;96.57
49835;BME280;35729;52.090;13.162;2023-01-25T08:16:33;102895.22;;;0.70;96.34
49835;BME280;35729;52.090;13.162;2023-01-25T08:19:02;102898.69;;;0.70;96.58
49835;BME280;35729;52.090;13.162;2023-01-25T08:21:32;102894.31;;;0.69;96.34
49835;BME280;35729;52.090;13.162;2023-01-25T08:24:08;102896.84;;;0.68;96.39
49835;BME280;35729;52.090;13.162;2023-01-25T08:26:39;102889.88;;;0.67;96.73
49835;BME280;35729;52.090;13.162;2023-01-25T08:29:09;102894.16;;;0.66;96.79
49835;BME280;35729;52.090;13.162;2023-01-25T08:31:40;102887.22;;;0.65;96.80
49835;BME280;35729;52.090;13.162;2023-01-25T08:34:09;102891.66;;;0.68;96.60
49835;BME280;35729;52.090;13.162;2023-01-25T08:36:39;102889.94;;;0.68;96.71
49835;BME280;35729;52.090;13.162;2023-01-25T08:39:10;102874.38;;;0.67;96.10
49835;BME280;35729;52.090;13.162;2023-01-25T08:41:41;102877.75;;;0.65;96.71
49835;BME280;35729;52.090;13.162;2023-01-25T08:44:10;102864.84;;;0.65;96.74
49835;BME280;35729;52.090;13.162;2023-01-25T08:46:39;102867.53;;;0.67;96.72
49835;BME280;35729;52.090;13.162;2023-01-25T08:49:08;102865.03;;;0.69;97.01
49835;BME280;35729;52.090;13.162;2023-01-25T08:51:37;102866.94;;;0.73;96.94
49835;BME280;35729;52.090;13.162;2023-01-25T08:54:07;102865.44;;;0.76;96.98
49835;BME280;35729;52.090;13.162;2023-01-25T08:56:35;102867.28;;;0.79;96.90
49835;BME280;35729;52.090;13.162;2023-01-25T08:59:08;102871.72;;;0.81;97.04
49835;BME280;35729;52.090;13.162;2023-01-25T09:01:38;102867.44;;;0.82;96.57
49835;BME280;35729;52.090;13.162;2023-01-25T09:04:06;102874.38;;;0.83;96.63
49835;BME280;35729;52.090;13.162;2023-01-25T09:06:35;102862.25;;;0.82;96.88
49835;BME280;35729;52.090;13.162;2023-01-25T09:09:03;102864.94;;;0.84;96.74
49835;BME280;35729;52.090;13.162;2023-01-25T09:11:33;102865.81;;;0.84;97.00
49835;BME280;35729;52.090;13.162;2023-01-25T09:14:02;102866.69;;;0.85;96.55
49835;BME280;35729;52.090;13.162;2023-01-25T09:16:34;102872.78;;;0.85;97.01
49835;BME280;35729;52.090;13.162;2023-01-25T09:19:03;102870.25;;;0.87;96.78
49835;BME280;35729;52.090;13.162;2023-01-25T09:21:32;102872.06;;;0.88;96.98
49835;BME280;35729;52.090;13.162;2023-01-25T09:24:02;102870.44;;;0.90;96.87
49835;BME280;35729;52.090;13.162;2023-01-25T09:26:31;102860.97;;;0.90;96.95
49835;BME280;35729;52.090;13.162;2023-01-25T09:28:59;102868.81;;;0.92;96.99
49835;BME280;35729;52.090;13.162;2023-01-25T09:31:27;102861.06;;;0.92;96.96
49835;BME280;35729;52.090;13.162;2023-01-25T09:33:59;102861.06;;;0.92;96.71
49835;BME280;35729;52.090;13.162;2023-01-25T09:36:27;102859.38;;;0.92;96.76
49835;BME280;35729;52.090;13.162;2023-01-25T09:38:56;102859.38;;;0.92;96.92
49835;BME280;35729;52.090;13.162;2023-01-25T09:41:52;102861.13;;;0.93;96.86
49835;BME280;35729;52.090;13.162;2023-01-25T09:44:34;102857.66;;;0.93;96.64
49835;BME280;35729;52.090;13.162;2023-01-25T09:47:15;102840.44;;;0.93;96.80
49835;BME280;35729;52.090;13.162;2023-01-25T09:50:10;102837.97;;;0.95;96.93
49835;BME280;35729;52.090;13.162;2023-01-25T09:55:37;102841.50;;;0.97;97.27
49835;BME280;35729;52.090;13.162;2023-01-25T09:58:11;102831.97;;;0.96;96.84
49835;BME280;35729;52.090;13.162;2023-01-25T10:00:43;102831.09;;;0.95;96.66
49835;BME280;35729;52.090;13.162;2023-01-25T10:03:20;102816.25;;;0.91;96.31
49835;BME280;35729;52.090;13.162;2023-01-25T10:05:53;102821.22;;;0.88;96.42
49835;BME280;35729;52.090;13.162;2023-01-25T10:08:27;102814.28;;;0.87;96.89
49835;BME280;35729;52.090;13.162;2023-01-25T10:11:03;102816.97;;;0.89;97.17
49835;BME280;35729;52.090;13.162;2023-01-25T10:13:34;102821.41;;;0.91;97.05
49835;BME280;35729;52.090;13.162;2023-01-25T10:16:04;102819.78;;;0.93;97.44
49835;BME280;35729;52.090;13.162;2023-01-25T10:18:38;102814.72;;;0.95;97.15
49835;BME280;35729;52.090;13.162;2023-01-25T10:21:16;102810.47;;;0.97;97.40
49835;BME280;35729;52.090;13.162;2023-01-25T10:24:18;102812.25;;;0.98;97.19
49835;BME280;35729;52.090;13.162;2023-01-25T10:26:54;102806.22;;;0.97;97.18
49835;BME280;35729;52.090;13.162;2023-01-25T10:29:27;102808.06;;;1.00;97.54
49835;BME280;35729;52.090;13.162;2023-01-25T10:32:04;102812.56;;;1.04;97.58
49835;BME280;35729;52.090;13.162;2023-01-25T10:34:38;102799.00;;;1.08;97.70
49835;BME280;35729;52.090;13.162;2023-01-25T10:37:13;102794.88;;;1.12;97.68
49835;BME280;35729;52.090;13.162;2023-01-25T10:39:51;102789.75;;;1.13;97.62
49835;BME280;35729;52.090;13.162;2023-01-25T10:42:32;102782.97;;;1.16;97.59
49835;BME280;35729;52.090;13.162;2023-01-25T10:45:10;102787.34;;;1.17;97.49
49835;BME280;35729;52.090;13.162;2023-01-25T10:47:40;102774.50;;;1.18;97.59
49835;BME280;35729;52.090;13.162;2023-01-25T10:50:46;102764.16;;;1.18;97.40
49835;BME280;35729;52.090;13.162;2023-01-25T10:53:38;102763.34;;;1.19;97.56
49835;BME280;35729;52.090;13.162;2023-01-25T10:56:20;102761.63;;;1.20;97.54
49835;BME280;35729;52.090;13.162;2023-01-25T10:58:51;102759.03;;;1.20;97.11
49835;BME280;35729;52.090;13.162;2023-01-25T11:01:27;102753.00;;;1.19;96.91
49835;BME280;35729;52.090;13.162;2023-01-25T11:03:56;102747.75;;;1.18;96.72
49835;BME280;35729;52.090;13.162;2023-01-25T11:06:31;102741.69;;;1.17;97.25
49835;BME280;35729;52.090;13.162;2023-01-25T11:09:33;102739.09;;;1.17;97.17
49835;BME280;35729;52.090;13.162;2023-01-25T11:12:04;102732.13;;;1.16;96.91
49835;BME280;35729;52.090;13.162;2023-01-25T11:14:33;102737.31;;;1.16;97.20
49835;BME280;35729;52.090;13.162;2023-01-25T11:17:03;102730.47;;;1.17;97.38
49835;BME280;35729;52.090;13.162;2023-01-25T11:19:35;102731.41;;;1.19;97.43
49835;BME280;35729;52.090;13.162;2023-01-25T11:22:05;102720.19;;;1.18;97.26
49835;BME280;35729;52.090;13.162;2023-01-25T11:24:36;102721.97;;;1.19;97.44
49835;BME280;35729;52.090;13.162;2023-01-25T11:27:16;102716.78;;;1.19;97.24
49835;BME280;35729;52.090;13.162;2023-01-25T11:30:06;102708.13;;;1.19;97.41
49835;BME280;35729;52.090;13.162;2023-01-25T11:32:37;102714.03;;;1.16;96.83
49835;BME280;35729;52.090;13.162;2023-01-25T11:35:12;102705.41;;;1.16;97.37
49835;BME280;35729;52.090;13.162;2023-01-25T11:37:51;102694.19;;;1.15;97.20
49835;BME280;35729;52.090;13.162;2023-01-25T11:40:36;102693.28;;;1.14;97.14
49835;BME280;35729;52.090;13.162;2023-01-25T11:43:16;102694.09;;;1.13;97.23
49835;BME280;35729;52.090;13.162;2023-01-25T11:46:02;102688.06;;;1.13;97.05
49835;BME280;35729;52.090;13.162;2023-01-25T11:49:08;102675.94;;;1.12;97.01
49835;BME280;35729;52.090;13.162;2023-01-25T11:51:47;102673.28;;;1.10;96.60
49835;BME280;35729;52.090;13.162;2023-01-25T11:54:32;102670.63;;;1.09;96.97
49835;BME280;35729;52.090;13.162;2023-01-25T11:57:13;102662.88;;;1.09;97.27
49835;BME280;35729;52.090;13.162;2023-01-25T11:59:54;102657.69;;;1.09;97.15
49835;BME280;35729;52.090;13.162;2023-01-25T12:02:42;102648.22;;;1.09;97.05
49835;BME280;35729;52.090;13.162;2023-01-25T12:05:29;102643.81;;;1.07;96.54
49835;BME280;35729;52.090;13.162;2023-01-25T12:08:14;102644.59;;;1.06;97.12
49835;BME280;35729;52.090;13.162;2023-01-25T12:10:51;102629.91;;;1.05;97.04
49835;BME280;35729;52.090;13.162;2023-01-25T12:13:31;102620.47;;;1.05;97.08
49835;BME280;35729;52.090;13.162;2023-01-25T12:16:23;102614.31;;;1.03;96.73
49835;BME280;35729;52.090;13.162;2023-01-25T12:19:19;102605.63;;;1.01;96.64
49835;BME280;35729;52.090;13.162;2023-01-25T12:22:06;102604.66;;;0.99;96.92
49835;BME280;35729;52.090;13.162;2023-01-25T12:24:43;102604.66;;;0.99;96.96
49835;BME280;35729;52.090;13.162;2023-01-25T12:27:28;102590.78;;;0.97;96.84
49835;BME280;35729;52.090;13.162;2023-01-25T12:30:12;102590.63;;;0.94;96.68
49835;BME280;35729;52.090;13.162;2023-01-25T12:32:47;102578.53;;;0.93;96.81
49835;BME280;35729;52.090;13.162;2023-01-25T12:35:22;102564.63;;;0.91;96.97
49835;BME280;35729;52.090;13.162;2023-01-25T12:37:57;102561.91;;;0.88;96.83
49835;BME280;35729;52.090;13.162;2023-01-25T12:40:31;102547.16;;;0.85;96.86
49835;BME280;35729;52.090;13.162;2023-01-25T12:43:04;102542.72;;;0.83;97.34
49835;BME280;35729;52.090;13.162;2023-01-25T12:45:44;102542.72;;;0.83;97.41
49835;BME280;35729;52.090;13.162;2023-01-25T12:48:17;102540.16;;;0.83;97.62
49835;BME280;35729;52.090;13.162;2023-01-25T12:50:52;102539.22;;;0.82;97.34
49835;BME280;35729;52.090;13.162;2023-01-25T12:53:24;102541.00;;;0.83;97.38
49835;BME280;35729;52.090;13.162;2023-01-25T12:55:54;102539.16;;;0.80;97.16
49835;BME280;35729;52.090;13.162;2023-01-25T12:58:28;102534.75;;;0.78;97.20
49835;BME280;35729;52.090;13.162;2023-01-25T13:01:09;102526.94;;;0.76;97.31
49835;BME280;35729;52.090;13.162;2023-01-25T13:03:55;102524.34;;;0.76;97.47
49835;BME280;35729;52.090;13.162;2023-01-25T13:06:33;102517.41;;;0.75;97.28
49835;BME280;35729;52.090;13.162;2023-01-25T13:09:11;102511.38;;;0.75;97.37
49835;BME280;35729;52.090;13.162;2023-01-25T13:11:44;102511.38;;;0.75;97.00
49835;BME280;35729;52.090;13.162;2023-01-25T13:14:37;102516.44;;;0.73;97.07
49835;BME280;35729;52.090;13.162;2023-01-25T13:17:20;102510.31;;;0.71;96.81
49835;BME280;35729;52.090;13.162;2023-01-25T13:19:49;102501.53;;;0.68;96.91